Accueil
METAR-TAF:

METAR-TAF

Aéroports :

Kuparuk, Alaska, États-Unis

latitude: 70-19N, longitude: 149-35W, altitude: 20 m

Observation

Le bulletin a été fait il y a 43 minutes, à 23:46 UTC
Vent 10 kt de nord-est
Température 6°C
Humidité 81%
Pression 1019 hPa
Visibilité: 16.1 km
Quelques nuages à une hauteur de 18000 ft

METAR: PAKU 102346Z 05010KT 10SM R06/P6000FT FEW180 06/03 A3008

Heure: 16:29 (00:29 UTC)


TAF: absent

Observations et prévisions météorologiques de plus de 4000 aéroports (messages METAR et TAF).

Les stations disponibles sont représentées par des disques jaunes et rouges sur la carte.

Passer la souris dessus pour voir le nom de la station.

Cliquer dessus pour voir les observations et prévisions météorologiques.

Pour changer de carte: cliquez sur les boutons verts avec une croix noire pour zoomer, sur le bouton vert avec un tiret pour effectuer un zoom arrière, ou sur les flèches vertes pour les cartes adjacentes.


METAR-TAF: